aviador You're here:

KTDR Decoded Metar

in
Report Time2017-07-25 19:56:00
UTC Time2017-07-25 20:35:24
Flight Rules vfr VFR
Wind260° at 07 Gusting to 15 kt
W.Rank260° ranks 21
Current wind is below 260° avg. (7.3)
Visibility9999 m
Phenomena:N/A
Clouds:N/A
Expected CloudBase > 2,400 ft AGL from Temp-Dew spread
CeilingNone
Temp30°C
Dew Point24°C (70% RH)
Heat Index35.0°C
QNH1020 hPa
Raw Report
KTDR 251956Z AUTO 26007G15KT 10SM CLR 30/24 A3011 RMK AO2 LTG DSNT
NE SLP200 T03030242 $=

Extra information for KTDR:More info

Social comments